Terminal Aerodrome Forecast
Issued by NWS Duluth, MN

Home | Current Version | Previous Version | Text Only | Print | Product List | Glossary On
Versions: 1 2 3 4 5 6 7 8 9 10 11 12 13 14 15 16 17 18
000
FTUS43 KDLH 181634 AAB
TAFDLH
TAF AMD
KDLH 181634Z 1817/1912 24016G24KT P6SM FEW110 WS020/24040KT
     FM181700 26016G22KT P6SM FEW120
     FM190200 27012KT P6SM FEW250
     FM190800 27008KT P6SM FEW200=

USA.gov is the U.S. government's official web portal to all federal, state and local government web resources and services.